Time;durP1;ratioP1;P1;durP2;ratioP2;P2;SDS_P1;SDS_P2;PMS_P1;PMS_P2;Temp;Humidity;BMP_temperature;BMP_pressure;BME280_temperature;BME280_humidity;BME280_pressure;Samples;Min_cycle;Max_cycle;Signal;HPM_P1;HPM_P2
2021/05/24 00:01:46;;;;;;;2.20;1.17;;;;;;;7.52;76.87;99917.59;5106594;28;20238;-83
2021/05/24 00:04:14;;;;;;;1.13;1.00;;;;;;;7.48;76.46;99919.00;5105707;28;20693;-82
2021/05/24 00:06:41;;;;;;;1.23;1.10;;;;;;;7.49;77.10;99932.16;5086180;28;20627;-81
2021/05/24 00:09:10;;;;;;;2.00;0.97;;;;;;;7.41;76.55;99923.47;5085558;28;20246;-81
2021/05/24 00:11:39;;;;;;;1.43;0.93;;;;;;;7.48;76.71;99935.84;5087089;28;20225;-81
2021/05/24 00:14:08;;;;;;;2.30;1.17;;;;;;;7.35;75.76;99902.91;5085733;28;20228;-83
2021/05/24 00:16:34;;;;;;;2.83;0.97;;;;;;;7.45;76.47;99925.56;5104428;28;20214;-83
2021/05/24 00:19:01;;;;;;;1.00;0.90;;;;;;;7.45;75.79;99917.56;5089161;28;20232;-83
2021/05/24 00:21:30;;;;;;;1.87;0.90;;;;;;;7.47;76.00;99898.69;5072580;28;20239;-82
2021/05/24 00:23:58;;;;;;;1.20;0.90;;;;;;;7.46;75.60;99900.56;5085475;28;20220;-82
2021/05/24 00:26:25;;;;;;;0.80;0.80;;;;;;;7.57;75.59;99930.34;5101408;28;20228;-82
2021/05/24 00:28:52;;;;;;;2.07;1.20;;;;;;;7.51;75.41;99924.78;5091122;28;20316;-83
2021/05/24 00:31:19;;;;;;;2.63;0.97;;;;;;;7.55;75.53;99933.25;5086247;28;20231;-83
2021/05/24 00:33:46;;;;;;;1.47;1.10;;;;;;;7.42;75.73;99923.25;5069024;28;20232;-83
2021/05/24 00:36:13;;;;;;;1.57;1.00;;;;;;;7.42;75.59;99915.25;5087254;28;20247;-83
2021/05/24 00:38:45;;;;;;;1.30;1.00;;;;;;;7.50;76.22;99941.81;5086457;28;20212;-83
2021/05/24 00:41:16;;;;;;;1.00;0.97;;;;;;;7.45;76.02;99940.72;5098934;28;20228;-83
2021/05/24 00:43:46;;;;;;;1.20;1.10;;;;;;;7.38;75.70;99938.00;5088891;28;20220;-82
2021/05/24 00:46:13;;;;;;;1.50;0.90;;;;;;;7.45;75.45;99946.88;5095394;28;20651;-83
2021/05/24 00:48:40;;;;;;;1.27;1.00;;;;;;;7.47;75.80;99942.19;5084849;28;20217;-83
2021/05/24 00:51:09;;;;;;;2.17;0.93;;;;;;;7.46;75.67;99940.56;5084200;28;20619;-82
2021/05/24 00:53:36;;;;;;;2.07;1.00;;;;;;;7.48;75.84;99943.00;5084944;28;20256;-83
2021/05/24 00:56:03;;;;;;;2.60;1.00;;;;;;;7.35;75.85;99918.91;5093853;28;20230;-81
2021/05/24 00:58:31;;;;;;;1.90;1.00;;;;;;;7.37;76.26;99939.00;5087938;28;20645;-82
2021/05/24 01:00:59;;;;;;;1.60;1.00;;;;;;;7.38;76.06;99924.66;5088423;28;20648;-83
2021/05/24 01:03:26;;;;;;;3.00;1.20;;;;;;;7.38;76.13;99929.16;5095557;28;20219;-82
2021/05/24 01:05:55;;;;;;;0.93;0.80;;;;;;;7.26;76.66;99923.53;5090849;28;20234;-83
2021/05/24 01:08:21;;;;;;;1.90;1.10;;;;;;;7.15;76.96;99912.56;5105960;28;20292;-83
2021/05/24 01:10:55;;;;;;;2.50;0.73;;;;;;;7.28;77.05;99936.69;5102623;28;20210;-82
2021/05/24 01:13:25;;;;;;;1.30;1.00;;;;;;;7.13;76.65;99923.44;5098166;28;20223;-82
2021/05/24 01:15:51;;;;;;;1.90;0.97;;;;;;;7.13;77.21;99925.25;5085695;28;20253;-81
2021/05/24 01:18:19;;;;;;;3.03;1.00;;;;;;;7.03;76.88;99915.75;5069315;28;20233;-81
2021/05/24 01:20:46;;;;;;;3.00;1.03;;;;;;;7.15;77.14;99942.69;5084938;28;20320;-82
2021/05/24 01:23:20;;;;;;;1.27;1.10;;;;;;;7.12;76.52;99932.44;5082907;23;20291;-83
2021/05/24 01:25:49;;;;;;;1.37;0.93;;;;;;;7.09;77.25;99941.59;5057219;28;20259;-82
2021/05/24 01:28:17;;;;;;;3.17;1.30;;;;;;;7.06;76.87;99941.16;5064803;28;20228;-82
2021/05/24 01:30:47;;;;;;;1.63;1.13;;;;;;;7.05;77.31;99937.69;5066344;28;20229;-83
2021/05/24 01:33:17;;;;;;;1.20;0.93;;;;;;;6.86;77.05;99908.19;5065369;28;20235;-81
2021/05/24 01:35:44;;;;;;;1.10;0.93;;;;;;;6.98;77.20;99933.31;5048759;28;20194;-82
2021/05/24 01:38:13;;;;;;;1.63;1.30;;;;;;;6.95;76.76;99933.69;5028058;28;20226;-84
2021/05/24 01:40:42;;;;;;;2.53;1.10;;;;;;;6.90;77.25;99925.44;5028942;28;20226;-83
2021/05/24 01:43:11;;;;;;;1.30;1.03;;;;;;;6.90;77.54;99926.28;5045216;28;20554;-83
2021/05/24 01:45:40;;;;;;;1.73;1.00;;;;;;;6.79;77.29;99921.41;5044685;28;20515;-82
2021/05/24 01:48:09;;;;;;;1.63;1.10;;;;;;;6.73;77.39;99908.84;5045483;28;20249;-83
2021/05/24 01:50:37;;;;;;;2.57;1.30;;;;;;;6.79;77.32;99913.44;5046164;28;20230;-83
2021/05/24 01:53:11;;;;;;;2.30;1.00;;;;;;;6.75;77.56;99914.81;5048336;28;20219;-81
2021/05/24 01:55:40;;;;;;;1.53;1.00;;;;;;;6.72;77.42;99914.38;5052380;28;20253;-82
2021/05/24 01:58:09;;;;;;;1.10;0.90;;;;;;;6.59;77.95;99910.53;5033920;28;20240;-80
2021/05/24 02:00:38;;;;;;;1.13;0.90;;;;;;;6.60;77.54;99908.69;5064439;28;20209;-83
2021/05/24 02:03:09;;;;;;;0.97;0.80;;;;;;;6.49;78.11;99912.66;5047318;28;20609;-83
2021/05/24 02:05:37;;;;;;;2.00;1.00;;;;;;;6.40;78.25;99905.78;5048646;28;20240;-84
2021/05/24 02:08:06;;;;;;;2.57;0.80;;;;;;;6.35;78.19;99902.03;5059490;28;20221;-82
2021/05/24 02:10:39;;;;;;;1.20;1.00;;;;;;;6.36;77.84;99907.19;5066059;28;20229;-82
2021/05/24 02:13:09;;;;;;;2.80;1.00;;;;;;;6.30;78.37;99893.81;5061147;28;20229;-82
2021/05/24 02:15:39;;;;;;;1.37;0.83;;;;;;;6.29;78.89;99897.47;5067105;28;20237;-81
2021/05/24 02:18:07;;;;;;;2.17;1.20;;;;;;;6.19;79.74;99895.09;5052494;28;20226;-81
2021/05/24 02:20:35;;;;;;;3.00;1.00;;;;;;;6.18;79.90;99896.09;5046740;28;20225;-83
2021/05/24 02:23:08;;;;;;;1.57;1.03;;;;;;;6.18;79.80;99902.25;5057296;28;20233;-83
2021/05/24 02:25:38;;;;;;;2.10;0.87;;;;;;;6.09;80.35;99895.38;5086700;28;20246;-82
2021/05/24 02:28:06;;;;;;;2.27;1.00;;;;;;;6.12;80.39;99921.59;5092616;28;20220;-81
2021/05/24 02:30:39;;;;;;;1.37;1.00;;;;;;;6.05;80.51;99919.88;5075178;28;20232;-84
2021/05/24 02:33:06;;;;;;;1.00;0.90;;;;;;;6.07;80.32;99931.13;5083060;28;20229;-82
2021/05/24 02:35:33;;;;;;;2.40;0.80;;;;;;;6.05;80.36;99926.03;5083289;28;20600;-82
2021/05/24 02:38:00;;;;;;;1.00;0.90;;;;;;;6.01;80.64;99924.75;5074383;28;20216;-80
2021/05/24 02:40:28;;;;;;;0.87;0.80;;;;;;;5.96;81.29;99918.31;5055122;28;20224;-82
2021/05/24 02:43:01;;;;;;;1.07;0.90;;;;;;;5.89;80.88;99917.38;5067256;28;20235;-81
2021/05/24 02:45:36;;;;;;;2.00;0.87;;;;;;;5.76;81.42;99916.16;5068237;28;20229;-81
2021/05/24 02:48:06;;;;;;;0.73;0.73;;;;;;;5.79;81.67;99930.91;5118125;23;20236;-81
2021/05/24 02:50:36;;;;;;;1.13;0.90;;;;;;;5.74;81.62;99931.44;5096030;28;20243;-83
2021/05/24 02:53:03;;;;;;;1.17;0.93;;;;;;;5.70;81.83;99939.97;5112013;28;20235;-82
2021/05/24 02:55:33;;;;;;;2.60;0.90;;;;;;;5.66;81.82;99931.53;5108388;28;20223;-82
2021/05/24 02:58:05;;;;;;;1.37;1.00;;;;;;;5.57;81.83;99935.28;5112467;28;20223;-83
2021/05/24 03:00:34;;;;;;;1.43;0.90;;;;;;;5.58;82.18;99939.59;5112532;28;20228;-82
2021/05/24 03:03:01;;;;;;;1.27;0.77;;;;;;;5.57;82.02;99937.09;5109574;28;20224;-82
2021/05/24 03:05:33;;;;;;;1.63;1.10;;;;;;;5.56;81.95;99938.94;5105752;28;20190;-82
2021/05/24 03:08:03;;;;;;;1.33;1.00;;;;;;;5.56;81.71;99933.63;5106511;28;20242;-80
2021/05/24 03:10:35;;;;;;;1.00;0.70;;;;;;;5.59;81.68;99924.47;5134144;28;20567;-84
2021/05/24 03:13:04;;;;;;;0.87;0.80;;;;;;;5.62;81.67;99930.25;5119132;28;20220;-83
2021/05/24 03:15:32;;;;;;;1.10;0.90;;;;;;;5.57;81.57;99918.50;5093679;28;20232;-84
2021/05/24 03:17:58;;;;;;;1.17;0.70;;;;;;;5.59;81.86;99905.88;5092839;28;20224;-84
2021/05/24 03:20:27;;;;;;;0.97;0.90;;;;;;;5.56;82.08;99892.91;5091074;28;20228;-81
2021/05/24 03:22:54;;;;;;;1.03;0.83;;;;;;;5.57;81.98;99890.09;5079368;28;20220;-81
2021/05/24 03:25:24;;;;;;;1.60;0.87;;;;;;;5.65;81.77;99910.44;5112404;28;20258;-81
2021/05/24 03:27:55;;;;;;;2.17;1.10;;;;;;;5.65;81.23;99911.25;5112404;28;20527;-81
2021/05/24 03:30:22;;;;;;;1.00;0.90;;;;;;;5.69;81.37;99907.22;5104539;22;20249;-80
2021/05/24 03:32:55;;;;;;;2.10;1.00;;;;;;;5.73;81.59;99905.06;5077765;28;20228;-80
2021/05/24 03:35:24;;;;;;;1.87;1.00;;;;;;;5.64;81.08;99884.88;5103753;28;20224;-80
2021/05/24 03:37:50;;;;;;;3.07;1.10;;;;;;;5.66;81.20;99877.53;5074415;28;20221;-81
2021/05/24 03:40:23;;;;;;;2.57;0.93;;;;;;;5.81;80.98;99885.53;5091376;28;20238;-82
2021/05/24 03:42:51;;;;;;;1.87;1.10;;;;;;;5.90;81.02;99898.59;5093687;28;20640;-81
2021/05/24 03:45:27;;;;;;;1.97;1.17;;;;;;;5.95;80.61;99890.06;5093824;28;20250;-82
2021/05/24 03:47:55;;;;;;;1.93;1.00;;;;;;;6.12;80.12;99896.84;5072991;23;20232;-81
2021/05/24 03:50:33;;;;;;;1.20;1.10;;;;;;;6.12;80.12;99884.38;5090507;28;20224;-81
2021/05/24 03:53:02;;;;;;;0.90;0.90;;;;;;;6.35;80.64;99902.03;5089673;28;20232;-81
2021/05/24 03:55:32;;;;;;;0.90;0.80;;;;;;;6.70;79.56;99909.25;5105134;28;20263;-82
2021/05/24 03:58:02;;;;;;;5.30;1.00;;;;;;;8.23;74.73;99916.44;5090062;28;20212;-82
2021/05/24 04:00:32;;;;;;;2.07;0.90;;;;;;;9.69;69.70;99919.31;5088326;28;20307;-82
2021/05/24 04:03:02;;;;;;;1.03;0.80;;;;;;;11.15;64.37;99912.41;5087272;28;20250;-82
2021/05/24 04:05:34;;;;;;;1.33;0.80;;;;;;;12.90;57.73;99909.22;5085813;28;20228;-82
2021/05/24 04:08:05;;;;;;;1.87;0.80;;;;;;;14.14;53.49;99912.88;5085534;28;20236;-80
2021/05/24 04:10:36;;;;;;;1.57;0.80;;;;;;;14.45;51.35;99923.28;5085291;28;20220;-81
2021/05/24 04:13:03;;;;;;;0.97;0.80;;;;;;;14.04;51.55;99924.22;5085788;28;20231;-82
2021/05/24 04:15:31;;;;;;;1.27;0.87;;;;;;;13.38;53.38;99929.91;5085317;28;20241;-81
2021/05/24 04:18:06;;;;;;;1.27;0.70;;;;;;;13.26;53.33;99920.94;5085196;28;20224;-79
2021/05/24 04:20:34;;;;;;;1.50;0.77;;;;;;;13.18;53.10;99914.88;5109409;28;20223;-81
2021/05/24 04:23:02;;;;;;;5.13;3.67;;;;;;;12.82;54.21;99916.81;5081457;28;20225;-82
2021/05/24 04:25:29;;;;;;;1.37;1.17;;;;;;;12.44;55.26;99907.13;5082336;28;20216;-81
2021/05/24 04:27:57;;;;;;;1.57;0.80;;;;;;;12.22;55.78;99877.22;5106535;28;20277;-81
2021/05/24 04:30:24;;;;;;;1.67;0.70;;;;;;;12.23;56.58;99880.72;5090222;28;20231;-82
2021/05/24 04:32:53;;;;;;;2.07;1.30;;;;;;;11.96;57.78;99874.00;5068557;28;20224;-81
2021/05/24 04:35:21;;;;;;;2.13;1.60;;;;;;;11.68;58.95;99880.63;5088532;28;20246;-81
2021/05/24 04:37:49;;;;;;;1.67;1.40;;;;;;;11.52;59.60;99872.31;5085407;28;20225;-81
2021/05/24 04:40:16;;;;;;;1.43;1.00;;;;;;;11.68;59.64;99883.31;5086787;28;20563;-81
2021/05/24 04:42:43;;;;;;;1.40;0.90;;;;;;;11.57;59.95;99902.00;5086099;28;20250;-80
2021/05/24 04:45:10;;;;;;;1.73;0.83;;;;;;;11.44;60.47;99906.44;5085655;28;20321;-81
2021/05/24 04:47:37;;;;;;;0.93;0.93;;;;;;;11.44;60.31;99893.00;5055463;28;895800;-81
2021/05/24 04:50:06;;;;;;;1.33;0.97;;;;;;;11.60;60.37;99894.34;5088109;28;20213;-82
2021/05/24 04:52:35;;;;;;;1.30;0.97;;;;;;;11.74;60.14;99900.44;5089223;28;20246;-82
2021/05/24 04:55:04;;;;;;;0.83;0.80;;;;;;;12.16;59.09;99894.22;5088411;28;20235;-81
2021/05/24 04:57:32;;;;;;;1.47;1.00;;;;;;;12.40;58.06;99870.19;5088149;28;20234;-80
2021/05/24 05:00:10;;;;;;;1.13;1.00;;;;;;;12.57;57.77;99882.78;5094845;23;20259;-80
2021/05/24 05:02:38;;;;;;;1.70;0.90;;;;;;;12.49;57.64;99893.84;5089505;28;20219;-82
2021/05/24 05:05:10;;;;;;;1.60;1.43;;;;;;;12.58;58.06;99907.78;5088938;28;20259;-80
2021/05/24 05:07:37;;;;;;;1.50;1.40;;;;;;;12.45;58.15;99899.91;5087461;28;20229;-80
2021/05/24 05:10:08;;;;;;;1.00;0.90;;;;;;;12.29;58.85;99906.69;5074669;28;20245;-81
2021/05/24 05:12:36;;;;;;;1.77;0.97;;;;;;;12.38;58.36;99902.66;5077658;28;20231;-80
2021/05/24 05:15:06;;;;;;;1.77;0.80;;;;;;;12.53;58.18;99892.34;5094276;28;20220;-80
2021/05/24 05:17:35;;;;;;;1.03;0.93;;;;;;;12.58;58.37;99872.84;5160570;22;20236;-80
2021/05/24 05:20:09;;;;;;;1.03;0.90;;;;;;;13.02;57.98;99875.13;5056828;28;20229;-82
2021/05/24 05:22:37;;;;;;;2.10;0.90;;;;;;;13.13;57.36;99847.47;5070730;28;20218;-81
2021/05/24 05:25:06;;;;;;;1.30;0.93;;;;;;;13.21;57.20;99859.75;5066727;28;20237;-80
2021/05/24 05:27:33;;;;;;;1.10;1.00;;;;;;;13.37;56.85;99871.72;5068165;28;20184;-81
2021/05/24 05:30:04;;;;;;;2.37;1.20;;;;;;;13.70;56.26;99877.38;5058989;28;20282;-80
2021/05/24 05:32:36;;;;;;;2.73;1.00;;;;;;;14.01;54.92;99877.00;5049589;28;20222;-81
2021/05/24 05:35:06;;;;;;;1.00;0.90;;;;;;;14.10;54.45;99866.69;5050823;28;20221;-79
2021/05/24 05:37:36;;;;;;;2.10;0.80;;;;;;;14.38;54.86;99882.97;5051805;28;20250;-81
2021/05/24 05:40:15;;;;;;;2.47;1.07;;;;;;;14.21;55.63;99879.34;5030384;28;20238;-80
2021/05/24 05:42:41;;;;;;;1.90;1.20;;;;;;;14.14;55.65;99872.44;5048331;28;20238;-81
2021/05/24 05:45:12;;;;;;;2.33;0.93;;;;;;;14.23;55.51;99857.56;5051885;28;20205;-79
2021/05/24 05:47:44;;;;;;;1.07;0.87;;;;;;;14.43;55.64;99874.97;5033756;28;20265;-81
2021/05/24 05:50:14;;;;;;;1.00;0.90;;;;;;;14.80;55.54;99888.09;5046414;28;20230;-81
2021/05/24 05:52:48;;;;;;;2.40;1.10;;;;;;;15.22;54.37;99869.72;5010342;28;20231;-80
2021/05/24 05:55:17;;;;;;;2.57;1.00;;;;;;;15.83;53.75;99864.25;5041665;28;20226;-80
2021/05/24 05:57:43;;;;;;;1.67;1.00;;;;;;;16.28;52.75;99845.13;5024585;28;20232;-84
2021/05/24 06:00:11;;;;;;;1.27;0.80;;;;;;;16.41;52.34;99854.75;5033014;28;20227;-86
2021/05/24 06:02:37;;;;;;;1.23;1.10;;;;;;;16.45;52.71;99838.84;5015164;28;20238;-85
2021/05/24 06:05:10;;;;;;;3.07;1.10;;;;;;;16.58;52.83;99852.81;5001387;28;20289;-85
2021/05/24 06:07:36;;;;;;;1.10;1.00;;;;;;;16.77;52.61;99847.91;5052921;28;20232;-84
2021/05/24 06:10:04;;;;;;;1.00;0.90;;;;;;;16.92;52.44;99841.81;5035698;28;20226;-86
2021/05/24 06:12:31;;;;;;;2.57;0.90;;;;;;;17.02;52.42;99842.75;5012034;28;20229;-83
2021/05/24 06:14:58;;;;;;;1.63;0.93;;;;;;;17.27;52.09;99847.56;5013727;28;20310;-80
2021/05/24 06:17:25;;;;;;;4.00;1.03;;;;;;;17.64;51.46;99861.16;5020489;28;20565;-85
2021/05/24 06:19:51;;;;;;;2.13;1.00;;;;;;;17.83;51.25;99845.28;4981154;28;20234;-87
2021/05/24 06:22:18;;;;;;;1.17;0.80;;;;;;;18.00;50.96;99835.94;5023000;28;20230;-83
2021/05/24 06:24:45;;;;;;;0.77;0.60;;;;;;;18.10;51.31;99829.75;4983814;28;20261;-84
2021/05/24 06:27:12;;;;;;;1.73;0.80;;;;;;;18.28;51.70;99839.31;5007109;28;20639;-84
2021/05/24 06:29:39;;;;;;;1.53;1.03;;;;;;;18.50;50.64;99831.78;5000030;28;20253;-82
2021/05/24 06:32:06;;;;;;;1.53;0.60;;;;;;;18.64;46.60;99821.28;5001799;28;20218;-85
2021/05/24 06:34:33;;;;;;;0.70;0.60;;;;;;;18.76;47.46;99822.66;5016343;28;20311;-86
2021/05/24 06:37:00;;;;;;;0.67;0.50;;;;;;;18.77;44.82;99821.56;5013288;28;20219;-83
2021/05/24 06:39:27;;;;;;;0.87;0.50;;;;;;;18.70;46.89;99828.34;4980470;28;20227;-80
2021/05/24 06:41:53;;;;;;;0.87;0.53;;;;;;;18.60;46.25;99822.91;4993195;28;20218;-85
2021/05/24 06:44:20;;;;;;;1.37;0.40;;;;;;;18.69;44.00;99796.88;4988280;28;22417;-84
2021/05/24 06:46:48;;;;;;;0.33;0.30;;;;;;;18.69;42.73;99797.69;4992388;28;20229;-82
2021/05/24 06:49:15;;;;;;;0.57;0.30;;;;;;;18.97;41.60;99814.56;5000940;28;20261;-85
2021/05/24 06:51:43;;;;;;;0.50;0.33;;;;;;;18.82;41.75;99802.59;5005861;28;20303;-81
2021/05/24 06:54:10;;;;;;;0.70;0.50;;;;;;;18.97;42.62;99799.09;5010407;28;20237;-80
2021/05/24 06:56:37;;;;;;;1.80;0.60;;;;;;;19.17;44.58;99795.56;5005010;28;20222;-80
2021/05/24 06:59:04;;;;;;;0.60;0.60;;;;;;;19.20;45.56;99798.53;5021819;28;20222;-82
2021/05/24 07:01:35;;;;;;;1.50;0.70;;;;;;;19.61;46.67;99823.81;4983779;28;20226;-82
2021/05/24 07:04:03;;;;;;;0.63;0.33;;;;;;;19.49;42.20;99787.97;5005845;28;20219;-82
2021/05/24 07:06:29;;;;;;;0.60;0.50;;;;;;;19.69;40.82;99792.56;5016467;28;20639;-83
2021/05/24 07:09:00;;;;;;;0.63;0.50;;;;;;;19.87;40.86;99802.84;5020994;28;20284;-81
2021/05/24 07:11:27;;;;;;;1.43;0.40;;;;;;;19.82;40.34;99810.19;5005971;28;20257;-82
2021/05/24 07:13:54;;;;;;;0.50;0.50;;;;;;;19.91;40.46;99811.25;5023512;28;20537;-82
2021/05/24 07:16:20;;;;;;;1.27;0.40;;;;;;;20.04;40.29;99806.03;5037030;28;20239;-82
2021/05/24 07:18:47;;;;;;;0.73;0.60;;;;;;;20.32;40.00;99807.31;5045931;28;20231;-82
2021/05/24 07:21:14;;;;;;;1.13;0.40;;;;;;;20.05;40.54;99807.69;5026889;28;20222;-82
2021/05/24 07:23:41;;;;;;;2.33;0.60;;;;;;;20.15;40.27;99815.00;5006571;28;20633;-82
2021/05/24 07:26:08;;;;;;;0.60;0.50;;;;;;;20.06;40.87;99809.28;5022821;28;20238;-81
2021/05/24 07:28:35;;;;;;;1.17;0.70;;;;;;;20.39;40.92;99794.22;5005883;28;20229;-82
2021/05/24 07:31:02;;;;;;;2.13;1.60;;;;;;;20.87;40.12;99792.56;5003716;28;20731;-84
2021/05/24 07:33:30;;;;;;;1.63;0.70;;;;;;;21.14;40.59;99796.78;5007139;28;20230;-82
2021/05/24 07:35:57;;;;;;;2.10;0.70;;;;;;;21.00;41.27;99786.47;5023473;28;20225;-82
2021/05/24 07:38:24;;;;;;;1.33;0.60;;;;;;;20.99;42.19;99795.78;5035744;28;20249;-83
2021/05/24 07:40:52;;;;;;;0.97;0.77;;;;;;;20.61;43.16;99793.84;5036223;28;20222;-83
2021/05/24 07:43:18;;;;;;;0.70;0.70;;;;;;;20.50;44.49;99795.81;5048520;28;20236;-82
2021/05/24 07:45:45;;;;;;;1.53;0.73;;;;;;;20.31;44.99;99772.22;5039278;28;20234;-82
2021/05/24 07:48:12;;;;;;;1.03;0.80;;;;;;;20.47;44.61;99776.50;5039640;28;20226;-81
2021/05/24 07:50:39;;;;;;;1.23;0.70;;;;;;;20.54;44.77;99771.53;4983898;28;20227;-82
2021/05/24 07:53:06;;;;;;;1.13;0.90;;;;;;;20.19;45.88;99761.66;5029349;28;20233;-82
2021/05/24 07:55:32;;;;;;;1.00;1.00;;;;;;;20.28;46.10;99759.16;5022609;28;20321;-83
2021/05/24 07:57:59;;;;;;;1.43;1.00;;;;;;;20.16;47.37;99781.22;5030219;28;20230;-81
2021/05/24 08:00:27;;;;;;;1.23;1.10;;;;;;;20.02;46.93;99778.28;4986502;28;20218;-82
2021/05/24 08:02:54;;;;;;;0.90;0.90;;;;;;;19.77;47.02;99775.69;5010214;28;20226;-81
2021/05/24 08:05:21;;;;;;;1.00;0.80;;;;;;;20.26;43.29;99773.03;5038232;28;20279;-82
2021/05/24 08:07:48;;;;;;;0.70;0.60;;;;;;;20.53;43.37;99767.22;5045728;28;21369;-82
2021/05/24 08:10:16;;;;;;;1.00;0.80;;;;;;;20.62;43.48;99777.22;5031617;28;20222;-81
2021/05/24 08:12:45;;;;;;;1.20;1.00;;;;;;;20.88;43.31;99774.31;5007922;28;20225;-84
2021/05/24 08:15:17;;;;;;;1.30;0.90;;;;;;;21.05;43.11;99764.66;5005244;28;20317;-83
2021/05/24 08:17:45;;;;;;;2.07;0.80;;;;;;;21.09;43.22;99764.88;5052040;28;20657;-81
2021/05/24 08:20:12;;;;;;;0.90;0.90;;;;;;;20.90;44.72;99778.38;5014021;28;20279;-82
2021/05/24 08:22:40;;;;;;;0.87;0.50;;;;;;;21.01;39.81;99769.03;5001600;28;20227;-82
2021/05/24 08:25:08;;;;;;;4.20;2.93;;;;;;;21.08;38.00;99755.94;5026616;28;20227;-82
2021/05/24 08:27:38;;;;;;;1.43;0.50;;;;;;;20.85;36.15;99723.16;5015268;28;20656;-83
2021/05/24 08:30:25;;;;;;;0.63;0.40;;;;;;;21.38;35.41;99719.41;5034297;28;20250;-81
2021/05/24 08:32:52;;;;;;;0.47;0.40;;;;;;;21.58;35.48;99723.84;5032124;28;20227;-81
2021/05/24 08:35:19;;;;;;;1.03;0.40;;;;;;;21.68;35.40;99733.84;4999529;28;20536;-81
2021/05/24 08:37:45;;;;;;;0.93;0.30;;;;;;;22.00;34.59;99734.03;5016094;28;20234;-81
2021/05/24 08:40:12;;;;;;;0.60;0.40;;;;;;;22.69;34.28;99732.50;5018360;28;20231;-82
2021/05/24 08:42:43;;;;;;;1.13;0.37;;;;;;;22.69;34.11;99719.66;5035162;28;20225;-82
2021/05/24 08:45:10;;;;;;;0.67;0.30;;;;;;;22.97;33.21;99725.25;5011539;28;20232;-82
2021/05/24 08:47:37;;;;;;;1.03;0.40;;;;;;;22.66;33.16;99722.19;4979611;28;20280;-82
2021/05/24 08:50:12;;;;;;;1.53;0.53;;;;;;;22.18;33.96;99710.59;5018191;28;20284;-82
2021/05/24 08:52:40;;;;;;;2.93;0.50;;;;;;;22.47;33.89;99718.66;5034892;28;20232;-81
2021/05/24 08:55:09;;;;;;;0.50;0.50;;;;;;;22.46;33.37;99715.09;5011590;28;20282;-83
2021/05/24 08:57:41;;;;;;;0.40;0.30;;;;;;;22.44;34.24;99717.34;5028275;28;20663;-83
2021/05/24 09:00:10;;;;;;;0.40;0.40;;;;;;;22.20;33.94;99719.31;5016145;28;20223;-82
2021/05/24 09:02:39;;;;;;;0.40;0.40;;;;;;;22.23;34.64;99716.81;5034656;28;20227;-82
2021/05/24 09:05:08;;;;;;;0.97;0.30;;;;;;;22.17;34.72;99717.97;5017634;28;20235;-82
2021/05/24 09:07:52;;;;;;;2.10;0.60;;;;;;;22.15;34.48;99720.19;4998607;28;20328;-82
2021/05/24 09:10:22;;;;;;;0.60;0.53;;;;;;;21.62;35.15;99719.44;5032228;28;20249;-82
2021/05/24 09:12:49;;;;;;;0.40;0.40;;;;;;;21.50;35.52;99729.94;5050975;28;20237;-82
2021/05/24 09:15:18;;;;;;;2.40;0.60;;;;;;;21.25;36.04;99736.44;5001084;28;20247;-83
2021/05/24 09:17:49;;;;;;;0.47;0.43;;;;;;;20.70;36.83;99737.69;5014638;28;20326;-82
2021/05/24 09:20:31;;;;;;;1.47;0.50;;;;;;;20.18;38.19;99744.50;5049971;28;20225;-83
2021/05/24 09:23:05;;;;;;;2.20;0.80;;;;;;;19.93;38.39;99757.38;5037702;28;20237;-83
2021/05/24 09:26:02;;;;;;;2.13;1.03;;;;;;;19.71;38.79;99757.75;5016315;28;20231;-82
2021/05/24 09:28:48;;;;;;;1.30;0.80;;;;;;;19.81;39.20;99751.47;5015687;28;20222;-82
2021/05/24 09:31:19;;;;;;;1.03;0.90;;;;;;;19.85;38.54;99757.97;5020713;28;20575;-82
2021/05/24 09:33:51;;;;;;;0.77;0.77;;;;;;;19.93;38.94;99755.50;5019330;28;20628;-82
2021/05/24 09:36:18;;;;;;;0.90;0.70;;;;;;;19.80;38.98;99745.22;5001217;28;20317;-82
2021/05/24 09:38:46;;;;;;;0.60;0.60;;;;;;;19.62;39.87;99754.78;5035006;28;20234;-81
2021/05/24 09:41:16;;;;;;;1.00;0.80;;;;;;;19.80;39.47;99723.47;5053464;28;20244;-81
2021/05/24 09:43:52;;;;;;;0.63;0.63;;;;;;;19.69;40.21;99760.72;5016776;28;20244;-80
2021/05/24 09:46:23;;;;;;;1.10;0.90;;;;;;;19.89;39.46;99748.16;5015644;28;20241;-82
2021/05/24 09:49:02;;;;;;;1.17;0.80;;;;;;;19.74;39.76;99759.91;5020575;28;20229;-81
2021/05/24 09:51:31;;;;;;;0.50;0.50;;;;;;;19.67;39.44;99762.94;5037329;28;20320;-82
2021/05/24 09:54:01;;;;;;;1.40;0.60;;;;;;;19.17;39.96;99761.09;5053520;28;20228;-82
2021/05/24 09:56:31;;;;;;;1.20;0.60;;;;;;;19.20;40.50;99754.28;5032952;28;20648;-81
2021/05/24 09:59:22;;;;;;;0.93;0.50;;;;;;;19.13;39.86;99749.09;5001089;28;20234;-82
2021/05/24 10:01:53;;;;;;;1.60;0.53;;;;;;;18.95;39.99;99735.25;5017678;28;20229;-82
2021/05/24 10:04:31;;;;;;;0.50;0.50;;;;;;;18.91;40.17;99737.72;5017405;28;20302;-84
2021/05/24 10:07:01;;;;;;;0.60;0.60;;;;;;;18.70;41.36;99731.47;5000983;28;20223;-81
2021/05/24 10:09:31;;;;;;;0.70;0.60;;;;;;;18.72;40.98;99713.00;5020417;28;20252;-82
2021/05/24 10:11:59;;;;;;;1.30;1.13;;;;;;;19.00;41.47;99725.22;5053084;28;20237;-82
2021/05/24 10:14:26;;;;;;;1.57;1.33;;;;;;;18.76;41.66;99710.56;5034250;28;20228;-82
2021/05/24 10:17:00;;;;;;;2.20;2.00;;;;;;;18.54;42.34;99702.69;5034331;28;20245;-81
2021/05/24 10:19:27;;;;;;;1.20;1.10;;;;;;;18.55;42.81;99690.75;5018501;28;20227;-82
2021/05/24 10:21:54;;;;;;;1.50;1.30;;;;;;;18.69;41.94;99712.75;5036891;28;20229;-82
2021/05/24 10:24:24;;;;;;;1.70;1.60;;;;;;;18.77;41.72;99706.75;5019715;28;20237;-83
2021/05/24 10:26:55;;;;;;;1.37;1.20;;;;;;;18.77;42.06;99714.91;5028886;28;20561;-82
2021/05/24 10:29:22;;;;;;;1.27;0.97;;;;;;;18.58;42.48;99692.91;4997372;28;20227;-82
2021/05/24 10:31:50;;;;;;;0.70;0.70;;;;;;;18.55;42.13;99707.03;5036006;28;20225;-82
2021/05/24 10:34:22;;;;;;;1.23;0.93;;;;;;;18.55;41.97;99715.19;5053600;28;20253;-82
2021/05/24 10:37:11;;;;;;;1.80;0.87;;;;;;;18.14;43.18;99710.72;5017855;28;20581;-83
2021/05/24 10:39:49;;;;;;;2.43;0.80;;;;;;;18.36;42.64;99719.44;5016976;28;20237;-80
2021/05/24 10:42:17;;;;;;;1.00;0.80;;;;;;;18.09;43.77;99727.78;5037337;28;20696;-83
2021/05/24 10:44:45;;;;;;;1.27;0.80;;;;;;;18.20;44.67;99715.88;5040352;28;20682;-82
2021/05/24 10:47:23;;;;;;;1.53;0.80;;;;;;;17.78;46.38;99718.69;5037668;28;20234;-81
2021/05/24 10:50:05;;;;;;;1.30;0.80;;;;;;;17.48;48.47;99730.19;5004548;28;20656;-81
2021/05/24 10:52:40;;;;;;;1.40;1.00;;;;;;;16.88;51.01;99710.81;5040125;28;20225;-82
2021/05/24 10:55:25;;;;;;;3.07;2.07;;;;;;;16.56;52.89;99732.41;5038229;28;20312;-82
2021/05/24 10:58:01;;;;;;;1.63;1.10;;;;;;;16.14;54.50;99719.53;5053362;28;20272;-83
2021/05/24 11:00:47;;;;;;;1.67;1.43;;;;;;;15.92;56.55;99717.91;5024393;28;20224;-82
2021/05/24 11:03:14;;;;;;;2.27;1.53;;;;;;;15.60;57.88;99724.00;5039670;28;20236;-81
2021/05/24 11:05:40;;;;;;;6.57;1.17;;;;;;;15.55;59.84;99725.81;5031833;28;20226;-82
2021/05/24 11:08:08;;;;;;;1.33;1.23;;;;;;;15.63;59.47;99718.09;5032755;28;20230;-81
2021/05/24 11:10:45;;;;;;;2.00;1.50;;;;;;;15.69;60.16;99710.88;5024242;28;20294;-81
2021/05/24 11:13:12;;;;;;;1.67;1.57;;;;;;;15.52;60.84;99719.03;5057004;28;20638;-80
2021/05/24 11:15:43;;;;;;;1.70;1.60;;;;;;;15.49;61.17;99689.78;5053857;28;20222;-80
2021/05/24 11:18:13;;;;;;;1.87;1.53;;;;;;;15.47;62.01;99702.75;5019496;28;20247;-81
2021/05/24 11:21:19;;;;;;;1.80;1.20;;;;;;;15.19;62.70;99709.09;5041504;28;20244;-80
2021/05/24 11:26:34;;;;;;;1.50;1.03;;;;;;;15.01;64.19;99706.66;5049655;28;20224;-81
2021/05/24 11:29:14;;;;;;;0.80;0.80;;;;;;;14.87;64.85;99684.59;5038692;28;20631;-81
2021/05/24 11:31:43;;;;;;;0.80;0.80;;;;;;;14.52;65.53;99692.91;5022122;28;20222;-81
2021/05/24 11:34:25;;;;;;;3.73;3.00;;;;;;;14.59;65.79;99705.44;5024432;28;20250;-82
2021/05/24 11:36:57;;;;;;;9.17;6.57;;;;;;;14.56;66.23;99681.66;5038988;28;20234;-82
2021/05/24 11:39:34;;;;;;;3.13;2.87;;;;;;;14.53;66.93;99710.72;5005464;28;20227;-81
2021/05/24 11:42:10;;;;;;;23.37;20.87;;;;;;;14.59;65.79;99714.34;5021055;28;20286;-82
2021/05/24 11:44:45;;;;;;;18.30;12.57;;;;;;;14.47;66.32;99703.59;5005569;28;20237;-81
2021/05/24 11:47:15;;;;;;;8.40;7.27;;;;;;;14.67;66.28;99696.94;5031406;28;20227;-81
2021/05/24 11:50:03;;;;;;;5.40;4.90;;;;;;;14.67;66.30;99703.16;5067493;28;20292;-81
2021/05/24 11:52:38;;;;;;;2.17;2.00;;;;;;;14.63;66.64;99698.50;5048250;28;20234;-81